sensor_id;sensor_type;location;lat;lon;timestamp;pressure;altitude;pressure_sealevel;temperature;humidity
46638;BME280;32365;46.938;7.390;2023-04-30T08:18:55;95191.22;;;13.43;74.87
46638;BME280;32365;46.938;7.390;2023-04-30T08:21:22;95195.66;;;13.85;73.10
46638;BME280;32365;46.938;7.390;2023-04-30T08:23:48;95193.13;;;13.53;75.27
46638;BME280;32365;46.938;7.390;2023-04-30T08:26:15;95204.31;;;12.93;77.11
46638;BME280;32365;46.938;7.390;2023-04-30T08:28:41;95202.56;;;13.32;76.28
46638;BME280;32365;46.938;7.390;2023-04-30T08:31:08;95193.00;;;14.39;71.79
46638;BME280;32365;46.938;7.390;2023-04-30T08:33:35;95191.69;;;14.41;71.92
46638;BME280;32365;46.938;7.390;2023-04-30T08:36:03;95186.97;;;14.23;72.67
46638;BME280;32365;46.938;7.390;2023-04-30T08:38:29;95202.59;;;14.23;72.19
46638;BME280;32365;46.938;7.390;2023-04-30T08:41:04;95195.16;;;14.62;71.22
46638;BME280;32365;46.938;7.390;2023-04-30T08:43:33;95198.47;;;13.79;73.83
46638;BME280;32365;46.938;7.390;2023-04-30T08:46:00;95209.56;;;14.12;72.21
46638;BME280;32365;46.938;7.390;2023-04-30T08:48:28;95204.19;;;14.39;70.66
46638;BME280;32365;46.938;7.390;2023-04-30T08:50:55;95205.47;;;13.78;72.74
46638;BME280;32365;46.938;7.390;2023-04-30T08:53:26;95212.91;;;13.59;74.32
46638;BME280;32365;46.938;7.390;2023-04-30T08:55:52;95217.59;;;13.57;74.29
46638;BME280;32365;46.938;7.390;2023-04-30T08:58:19;95217.78;;;13.88;72.95
46638;BME280;32365;46.938;7.390;2023-04-30T09:00:45;95214.66;;;13.48;74.27
46638;BME280;32365;46.938;7.390;2023-04-30T09:03:12;95218.97;;;14.18;72.46
46638;BME280;32365;46.938;7.390;2023-04-30T09:05:38;95217.94;;;14.19;71.55
46638;BME280;32365;46.938;7.390;2023-04-30T09:08:06;95217.22;;;13.81;73.56
46638;BME280;32365;46.938;7.390;2023-04-30T09:10:34;95220.78;;;14.12;72.38
46638;BME280;32365;46.938;7.390;2023-04-30T09:13:03;95207.44;;;14.77;70.55
46638;BME280;32365;46.938;7.390;2023-04-30T09:15:31;95210.84;;;14.09;73.07
46638;BME280;32365;46.938;7.390;2023-04-30T09:18:09;95197.53;;;14.80;69.03
46638;BME280;32365;46.938;7.390;2023-04-30T09:20:37;95198.38;;;14.16;72.21
46638;BME280;32365;46.938;7.390;2023-04-30T09:23:07;95193.03;;;14.49;72.04
46638;BME280;32365;46.938;7.390;2023-04-30T09:25:39;95196.44;;;14.60;72.59
46638;BME280;32365;46.938;7.390;2023-04-30T09:28:07;95197.28;;;15.59;66.67
46638;BME280;32365;46.938;7.390;2023-04-30T09:30:34;95201.47;;;14.98;69.60
46638;BME280;32365;46.938;7.390;2023-04-30T09:33:01;95195.47;;;15.13;67.63
46638;BME280;32365;46.938;7.390;2023-04-30T09:35:28;95196.53;;;15.43;68.23
46638;BME280;32365;46.938;7.390;2023-04-30T09:37:55;95202.25;;;15.03;69.39
46638;BME280;32365;46.938;7.390;2023-04-30T09:40:31;95200.66;;;15.59;65.89
46638;BME280;32365;46.938;7.390;2023-04-30T09:42:59;95201.22;;;15.04;67.12
46638;BME280;32365;46.938;7.390;2023-04-30T09:45:26;95195.50;;;15.18;67.72
46638;BME280;32365;46.938;7.390;2023-04-30T09:47:52;95196.44;;;14.65;68.98
46638;BME280;32365;46.938;7.390;2023-04-30T09:50:19;95191.25;;;14.60;68.09
46638;BME280;32365;46.938;7.390;2023-04-30T09:52:49;95197.03;;;14.88;69.79
46638;BME280;32365;46.938;7.390;2023-04-30T09:55:17;95199.13;;;15.43;67.18
46638;BME280;32365;46.938;7.390;2023-04-30T09:57:44;95200.19;;;14.85;68.52
46638;BME280;32365;46.938;7.390;2023-04-30T10:00:14;95199.00;;;14.50;69.21
46638;BME280;32365;46.938;7.390;2023-04-30T10:02:42;95192.09;;;15.28;67.62
46638;BME280;32365;46.938;7.390;2023-04-30T10:05:08;95197.03;;;14.98;69.31
46638;BME280;32365;46.938;7.390;2023-04-30T10:07:37;95195.47;;;15.13;68.23
46638;BME280;32365;46.938;7.390;2023-04-30T10:10:07;95195.22;;;14.99;68.69
46638;BME280;32365;46.938;7.390;2023-04-30T10:12:42;95196.25;;;14.77;67.73
46638;BME280;32365;46.938;7.390;2023-04-30T10:15:16;95197.91;;;14.25;69.24
46638;BME280;32365;46.938;7.390;2023-04-30T10:17:47;95198.56;;;13.99;70.72
46638;BME280;32365;46.938;7.390;2023-04-30T10:20:16;95203.31;;;14.13;69.85
46638;BME280;32365;46.938;7.390;2023-04-30T10:22:46;95202.19;;;13.93;70.99
46638;BME280;32365;46.938;7.390;2023-04-30T10:25:13;95197.28;;;14.02;73.07
46638;BME280;32365;46.938;7.390;2023-04-30T10:27:40;95189.06;;;14.31;70.85
46638;BME280;32365;46.938;7.390;2023-04-30T10:30:09;95187.63;;;14.71;70.94
46638;BME280;32365;46.938;7.390;2023-04-30T10:32:40;95190.00;;;15.09;68.63
46638;BME280;32365;46.938;7.390;2023-04-30T10:35:11;95195.44;;;15.80;64.94
46638;BME280;32365;46.938;7.390;2023-04-30T10:37:45;95190.25;;;15.23;67.50
46638;BME280;32365;46.938;7.390;2023-04-30T10:40:13;95187.94;;;15.37;65.74
46638;BME280;32365;46.938;7.390;2023-04-30T10:42:44;95177.97;;;15.54;65.42
46638;BME280;32365;46.938;7.390;2023-04-30T10:45:11;95178.72;;;15.76;63.86
46638;BME280;32365;46.938;7.390;2023-04-30T10:47:42;95188.41;;;15.60;64.62
46638;BME280;32365;46.938;7.390;2023-04-30T10:50:10;95180.81;;;16.50;63.44
46638;BME280;32365;46.938;7.390;2023-04-30T10:52:37;95178.81;;;15.29;65.55
46638;BME280;32365;46.938;7.390;2023-04-30T10:55:05;95180.34;;;15.25;64.62
46638;BME280;32365;46.938;7.390;2023-04-30T10:57:39;95173.06;;;15.01;64.76
46638;BME280;32365;46.938;7.390;2023-04-30T11:00:23;95165.78;;;15.03;65.91
46638;BME280;32365;46.938;7.390;2023-04-30T11:02:55;95172.00;;;15.38;65.47
46638;BME280;32365;46.938;7.390;2023-04-30T11:05:33;95173.06;;;15.22;65.30
46638;BME280;32365;46.938;7.390;2023-04-30T11:08:01;95170.44;;;14.86;67.64
46638;BME280;32365;46.938;7.390;2023-04-30T11:10:32;95175.94;;;15.10;66.70
46638;BME280;32365;46.938;7.390;2023-04-30T11:13:02;95165.25;;;15.32;65.80
46638;BME280;32365;46.938;7.390;2023-04-30T11:15:33;95166.28;;;15.00;68.55
46638;BME280;32365;46.938;7.390;2023-04-30T11:18:02;95160.56;;;14.93;67.68
46638;BME280;32365;46.938;7.390;2023-04-30T11:20:28;95158.31;;;14.28;69.77
46638;BME280;32365;46.938;7.390;2023-04-30T11:23:08;95154.19;;;14.32;71.48
46638;BME280;32365;46.938;7.390;2023-04-30T11:25:38;95162.56;;;14.55;72.23
46638;BME280;32365;46.938;7.390;2023-04-30T11:28:05;95160.53;;;14.77;69.52
46638;BME280;32365;46.938;7.390;2023-04-30T11:30:33;95168.91;;;15.05;68.17
46638;BME280;32365;46.938;7.390;2023-04-30T11:33:02;95178.28;;;15.06;68.42
46638;BME280;32365;46.938;7.390;2023-04-30T11:35:29;95190.94;;;14.41;68.61
46638;BME280;32365;46.938;7.390;2023-04-30T11:37:58;95185.75;;;14.56;69.42
46638;BME280;32365;46.938;7.390;2023-04-30T11:40:25;95185.22;;;14.54;68.82
46638;BME280;32365;46.938;7.390;2023-04-30T11:42:54;95196.41;;;13.86;70.38
46638;BME280;32365;46.938;7.390;2023-04-30T11:45:21;95201.66;;;13.96;72.60
46638;BME280;32365;46.938;7.390;2023-04-30T11:47:49;95192.44;;;14.26;70.61
46638;BME280;32365;46.938;7.390;2023-04-30T11:50:18;95201.59;;;14.50;70.08
46638;BME280;32365;46.938;7.390;2023-04-30T11:52:48;95195.47;;;14.87;68.29
46638;BME280;32365;46.938;7.390;2023-04-30T11:55:18;95187.84;;;14.65;69.08
46638;BME280;32365;46.938;7.390;2023-04-30T11:57:46;95182.16;;;14.73;68.96
46638;BME280;32365;46.938;7.390;2023-04-30T12:00:14;95180.13;;;15.01;68.82
46638;BME280;32365;46.938;7.390;2023-04-30T12:02:42;95186.75;;;14.45;70.09
46638;BME280;32365;46.938;7.390;2023-04-30T12:05:13;95197.03;;;14.83;69.76
46638;BME280;32365;46.938;7.390;2023-04-30T12:07:46;95193.00;;;14.39;70.78
46638;BME280;32365;46.938;7.390;2023-04-30T12:10:13;95193.25;;;14.32;70.19
46638;BME280;32365;46.938;7.390;2023-04-30T12:12:42;95194.22;;;14.15;71.54
46638;BME280;32365;46.938;7.390;2023-04-30T12:15:13;95192.22;;;14.43;70.25
46638;BME280;32365;46.938;7.390;2023-04-30T12:17:40;95195.41;;;14.61;69.07
46638;BME280;32365;46.938;7.390;2023-04-30T12:20:08;95192.88;;;14.82;68.59
46638;BME280;32365;46.938;7.390;2023-04-30T12:22:34;95190.78;;;14.78;67.50
46638;BME280;32365;46.938;7.390;2023-04-30T12:25:07;95182.63;;;14.54;69.52
46638;BME280;32365;46.938;7.390;2023-04-30T12:27:35;95188.94;;;14.74;69.89
46638;BME280;32365;46.938;7.390;2023-04-30T12:30:04;95190.00;;;15.04;67.60
46638;BME280;32365;46.938;7.390;2023-04-30T12:32:37;95196.50;;;14.81;69.15
46638;BME280;32365;46.938;7.390;2023-04-30T12:35:04;95186.78;;;14.50;69.23
46638;BME280;32365;46.938;7.390;2023-04-30T12:37:31;95189.34;;;14.40;70.02
46638;BME280;32365;46.938;7.390;2023-04-30T12:39:57;95194.19;;;14.89;70.06
46638;BME280;32365;46.938;7.390;2023-04-30T12:42:30;95195.72;;;14.80;70.24
46638;BME280;32365;46.938;7.390;2023-04-30T12:44:58;95189.66;;;14.49;69.08
46638;BME280;32365;46.938;7.390;2023-04-30T12:47:24;95195.63;;;14.49;69.78
46638;BME280;32365;46.938;7.390;2023-04-30T12:49:51;95193.66;;;14.77;68.52
46638;BME280;32365;46.938;7.390;2023-04-30T12:52:22;95199.63;;;14.72;68.79
46638;BME280;32365;46.938;7.390;2023-04-30T12:54:49;95195.13;;;14.57;68.59
46638;BME280;32365;46.938;7.390;2023-04-30T12:57:16;95200.66;;;14.71;67.73
46638;BME280;32365;46.938;7.390;2023-04-30T12:59:57;95200.63;;;14.61;68.33
46638;BME280;32365;46.938;7.390;2023-04-30T13:02:25;95201.91;;;14.53;68.13
46638;BME280;32365;46.938;7.390;2023-04-30T13:04:52;95195.38;;;14.45;68.06
46638;BME280;32365;46.938;7.390;2023-04-30T13:07:19;95198.88;;;14.13;68.11
46638;BME280;32365;46.938;7.390;2023-04-30T13:09:46;95204.56;;;14.05;68.62
46638;BME280;32365;46.938;7.390;2023-04-30T13:12:13;95202.53;;;14.12;69.52
46638;BME280;32365;46.938;7.390;2023-04-30T13:14:39;95197.47;;;14.54;68.67
46638;BME280;32365;46.938;7.390;2023-04-30T13:17:07;95200.09;;;14.59;68.90
46638;BME280;32365;46.938;7.390;2023-04-30T13:19:36;95199.53;;;14.46;68.52
46638;BME280;32365;46.938;7.390;2023-04-30T13:22:02;95201.72;;;14.86;67.30
46638;BME280;32365;46.938;7.390;2023-04-30T13:24:29;95200.66;;;14.87;68.08
46638;BME280;32365;46.938;7.390;2023-04-30T13:26:55;95197.44;;;14.43;69.59
46638;BME280;32365;46.938;7.390;2023-04-30T13:29:23;95193.00;;;14.44;69.12
46638;BME280;32365;46.938;7.390;2023-04-30T13:31:50;95197.34;;;14.18;70.80
46638;BME280;32365;46.938;7.390;2023-04-30T13:34:17;95197.03;;;14.09;71.55
46638;BME280;32365;46.938;7.390;2023-04-30T13:36:44;95191.38;;;14.17;71.13
46638;BME280;32365;46.938;7.390;2023-04-30T13:39:11;95190.72;;;14.58;68.73
46638;BME280;32365;46.938;7.390;2023-04-30T13:41:37;95189.72;;;14.74;69.42
46638;BME280;32365;46.938;7.390;2023-04-30T13:44:04;95190.78;;;14.89;68.78
46638;BME280;32365;46.938;7.390;2023-04-30T13:46:30;95184.53;;;15.00;69.57
46638;BME280;32365;46.938;7.390;2023-04-30T13:48:57;95185.06;;;15.44;67.25
46638;BME280;32365;46.938;7.390;2023-04-30T13:51:25;95181.91;;;14.69;68.60
46638;BME280;32365;46.938;7.390;2023-04-30T13:53:51;95178.69;;;14.52;70.42
46638;BME280;32365;46.938;7.390;2023-04-30T13:56:18;95185.75;;;14.51;70.31
46638;BME280;32365;46.938;7.390;2023-04-30T13:58:45;95177.75;;;14.78;69.93
46638;BME280;32365;46.938;7.390;2023-04-30T14:01:11;95177.94;;;14.51;69.02
46638;BME280;32365;46.938;7.390;2023-04-30T14:03:38;95182.16;;;14.83;69.97
46638;BME280;32365;46.938;7.390;2023-04-30T14:06:05;95178.53;;;14.79;68.76
46638;BME280;32365;46.938;7.390;2023-04-30T14:08:34;95177.50;;;14.90;67.92
46638;BME280;32365;46.938;7.390;2023-04-30T14:11:00;95173.84;;;15.17;66.88
46638;BME280;32365;46.938;7.390;2023-04-30T14:13:27;95174.09;;;14.90;65.94
46638;BME280;32365;46.938;7.390;2023-04-30T14:15:53;95175.69;;;15.32;64.77
46638;BME280;32365;46.938;7.390;2023-04-30T14:18:20;95168.88;;;15.11;65.98
46638;BME280;32365;46.938;7.390;2023-04-30T14:20:47;95171.50;;;14.80;67.46
46638;BME280;32365;46.938;7.390;2023-04-30T14:23:13;95173.56;;;15.45;65.45
46638;BME280;32365;46.938;7.390;2023-04-30T14:25:42;95168.88;;;15.11;67.11
46638;BME280;32365;46.938;7.390;2023-04-30T14:28:08;95176.47;;;15.12;66.07
46638;BME280;32365;46.938;7.390;2023-04-30T14:30:35;95172.78;;;14.77;67.63
46638;BME280;32365;46.938;7.390;2023-04-30T14:33:01;95174.56;;;14.66;68.35
46638;BME280;32365;46.938;7.390;2023-04-30T14:35:28;95169.84;;;14.47;68.92
46638;BME280;32365;46.938;7.390;2023-04-30T14:37:54;95163.06;;;14.36;68.09
46638;BME280;32365;46.938;7.390;2023-04-30T14:40:20;95172.00;;;14.71;68.03
46638;BME280;32365;46.938;7.390;2023-04-30T14:42:48;95168.63;;;14.81;68.00
46638;BME280;32365;46.938;7.390;2023-04-30T14:45:15;95169.69;;;14.90;66.19
46638;BME280;32365;46.938;7.390;2023-04-30T14:47:42;95170.22;;;15.03;67.68
46638;BME280;32365;46.938;7.390;2023-04-30T14:50:09;95166.13;;;14.28;67.70
46638;BME280;32365;46.938;7.390;2023-04-30T14:52:35;95164.88;;;14.41;68.35
46638;BME280;32365;46.938;7.390;2023-04-30T14:55:02;95166.56;;;14.88;66.55
46638;BME280;32365;46.938;7.390;2023-04-30T14:57:29;95165.94;;;14.50;66.71
46638;BME280;32365;46.938;7.390;2023-04-30T14:59:56;95172.16;;;14.44;67.79
46638;BME280;32365;46.938;7.390;2023-04-30T15:02:24;95173.75;;;14.50;67.75
46638;BME280;32365;46.938;7.390;2023-04-30T15:04:51;95162.03;;;14.53;67.94
46638;BME280;32365;46.938;7.390;2023-04-30T15:07:18;95174.28;;;14.52;67.28
46638;BME280;32365;46.938;7.390;2023-04-30T15:09:45;95162.81;;;14.53;67.03
46638;BME280;32365;46.938;7.390;2023-04-30T15:12:12;95165.91;;;14.40;66.87
46638;BME280;32365;46.938;7.390;2023-04-30T15:14:38;95166.22;;;14.49;67.15
46638;BME280;32365;46.938;7.390;2023-04-30T15:17:07;95170.41;;;14.60;67.56
46638;BME280;32365;46.938;7.390;2023-04-30T15:19:33;95171.13;;;14.45;66.91
46638;BME280;32365;46.938;7.390;2023-04-30T15:21:59;95172.25;;;14.70;68.30
46638;BME280;32365;46.938;7.390;2023-04-30T15:24:26;95167.31;;;15.09;65.92
46638;BME280;32365;46.938;7.390;2023-04-30T15:26:52;95170.19;;;14.92;66.99
46638;BME280;32365;46.938;7.390;2023-04-30T15:29:19;95166.03;;;15.02;64.91
46638;BME280;32365;46.938;7.390;2023-04-30T15:31:45;95168.88;;;14.90;65.21
46638;BME280;32365;46.938;7.390;2023-04-30T15:34:13;95167.03;;;14.70;67.04
46638;BME280;32365;46.938;7.390;2023-04-30T15:36:40;95157.84;;;14.36;66.55
46638;BME280;32365;46.938;7.390;2023-04-30T15:39:06;95167.25;;;14.63;67.30
46638;BME280;32365;46.938;7.390;2023-04-30T15:41:33;95162.38;;;14.87;65.34
46638;BME280;32365;46.938;7.390;2023-04-30T15:43:59;95161.84;;;14.80;65.95
46638;BME280;32365;46.938;7.390;2023-04-30T15:46:26;95152.13;;;14.55;66.52
46638;BME280;32365;46.938;7.390;2023-04-30T15:48:53;95162.38;;;15.13;64.50
46638;BME280;32365;46.938;7.390;2023-04-30T15:51:20;95169.41;;;15.13;66.91
46638;BME280;32365;46.938;7.390;2023-04-30T15:53:47;95167.06;;;15.11;64.11
46638;BME280;32365;46.938;7.390;2023-04-30T15:56:13;95162.91;;;14.89;63.53
46638;BME280;32365;46.938;7.390;2023-04-30T15:58:40;95156.66;;;15.01;62.86
46638;BME280;32365;46.938;7.390;2023-04-30T16:01:06;95171.75;;;14.78;64.94
46638;BME280;32365;46.938;7.390;2023-04-30T16:03:33;95165.69;;;14.57;65.22
46638;BME280;32365;46.938;7.390;2023-04-30T16:05:59;95168.53;;;14.45;65.55
46638;BME280;32365;46.938;7.390;2023-04-30T16:08:28;95173.75;;;14.50;66.56
46638;BME280;32365;46.938;7.390;2023-04-30T16:10:54;95165.44;;;14.58;65.04
46638;BME280;32365;46.938;7.390;2023-04-30T16:13:21;95164.63;;;14.53;67.78
46638;BME280;32365;46.938;7.390;2023-04-30T16:15:47;95167.75;;;14.50;65.07
46638;BME280;32365;46.938;7.390;2023-04-30T16:18:14;95168.56;;;14.55;65.24
46638;BME280;32365;46.938;7.390;2023-04-30T16:20:41;95162.56;;;14.65;65.46
46638;BME280;32365;46.938;7.390;2023-04-30T16:23:07;95163.41;;;14.71;64.69
46638;BME280;32365;46.938;7.390;2023-04-30T16:25:35;95167.53;;;14.61;64.39
46638;BME280;32365;46.938;7.390;2023-04-30T16:28:02;95174.63;;;14.71;63.75
46638;BME280;32365;46.938;7.390;2023-04-30T16:30:28;95168.28;;;14.62;62.99
46638;BME280;32365;46.938;7.390;2023-04-30T16:32:54;95171.41;;;14.54;63.39
46638;BME280;32365;46.938;7.390;2023-04-30T16:35:21;95163.06;;;14.36;65.45
46638;BME280;32365;46.938;7.390;2023-04-30T16:37:47;95169.06;;;14.47;63.88
46638;BME280;32365;46.938;7.390;2023-04-30T16:40:14;95171.69;;;14.57;63.96
46638;BME280;32365;46.938;7.390;2023-04-30T16:42:42;95168.53;;;14.40;63.55
46638;BME280;32365;46.938;7.390;2023-04-30T16:45:09;95167.16;;;14.27;66.58
46638;BME280;32365;46.938;7.390;2023-04-30T16:47:35;95166.41;;;14.31;64.01
46638;BME280;32365;46.938;7.390;2023-04-30T16:50:02;95161.97;;;14.22;64.54
46638;BME280;32365;46.938;7.390;2023-04-30T16:52:29;95164.00;;;14.14;64.16
46638;BME280;32365;46.938;7.390;2023-04-30T16:54:57;95164.81;;;14.20;65.80
46638;BME280;32365;46.938;7.390;2023-04-30T16:57:23;95165.09;;;14.24;64.73
46638;BME280;32365;46.938;7.390;2023-04-30T16:59:51;95169.28;;;14.30;63.17
46638;BME280;32365;46.938;7.390;2023-04-30T17:02:18;95168.16;;;14.10;64.49
46638;BME280;32365;46.938;7.390;2023-04-30T17:04:44;95173.09;;;14.07;65.39
46638;BME280;32365;46.938;7.390;2023-04-30T17:07:10;95169.72;;;14.06;63.95
46638;BME280;32365;46.938;7.390;2023-04-30T17:09:37;95176.44;;;14.02;64.65
46638;BME280;32365;46.938;7.390;2023-04-30T17:12:04;95170.94;;;13.83;65.94
46638;BME280;32365;46.938;7.390;2023-04-30T17:14:30;95175.38;;;13.93;64.48
46638;BME280;32365;46.938;7.390;2023-04-30T17:16:58;95170.47;;;14.01;64.35
46638;BME280;32365;46.938;7.390;2023-04-30T17:19:25;95169.13;;;13.89;65.38
46638;BME280;32365;46.938;7.390;2023-04-30T17:21:51;95171.72;;;13.89;65.07
46638;BME280;32365;46.938;7.390;2023-04-30T17:24:18;95173.81;;;13.92;65.33
46638;BME280;32365;46.938;7.390;2023-04-30T17:26:44;95173.34;;;14.00;66.23
46638;BME280;32365;46.938;7.390;2023-04-30T17:29:11;95172.22;;;13.85;67.72
46638;BME280;32365;46.938;7.390;2023-04-30T17:31:37;95177.75;;;13.94;68.01
46638;BME280;32365;46.938;7.390;2023-04-30T17:34:05;95179.81;;;13.92;66.18
46638;BME280;32365;46.938;7.390;2023-04-30T17:36:32;95167.38;;;14.05;68.29
46638;BME280;32365;46.938;7.390;2023-04-30T17:38:59;95174.59;;;13.97;67.01
46638;BME280;32365;46.938;7.390;2023-04-30T17:41:29;95166.00;;;13.92;65.88
46638;BME280;32365;46.938;7.390;2023-04-30T17:43:55;95169.56;;;13.75;67.97
46638;BME280;32365;46.938;7.390;2023-04-30T17:46:22;95170.94;;;13.83;66.96
46638;BME280;32365;46.938;7.390;2023-04-30T17:48:49;95172.69;;;13.77;66.72
46638;BME280;32365;46.938;7.390;2023-04-30T17:51:16;95168.47;;;13.61;68.97
46638;BME280;32365;46.938;7.390;2023-04-30T17:53:43;95174.19;;;13.63;68.98
46638;BME280;32365;46.938;7.390;2023-04-30T17:56:10;95178.41;;;13.74;68.49
46638;BME280;32365;46.938;7.390;2023-04-30T17:58:37;95178.06;;;13.60;69.82
46638;BME280;32365;46.938;7.390;2023-04-30T18:01:04;95167.91;;;13.59;69.46
46638;BME280;32365;46.938;7.390;2023-04-30T18:03:31;95178.28;;;13.53;70.31
46638;BME280;32365;46.938;7.390;2023-04-30T18:06:00;95170.47;;;13.48;70.15
46638;BME280;32365;46.938;7.390;2023-04-30T18:08:28;95171.34;;;13.32;68.69
46638;BME280;32365;46.938;7.390;2023-04-30T18:10:55;95170.88;;;13.35;69.16
46638;BME280;32365;46.938;7.390;2023-04-30T18:13:21;95172.91;;;13.28;70.86
46638;BME280;32365;46.938;7.390;2023-04-30T18:15:48;95172.94;;;13.33;68.99
46638;BME280;32365;46.938;7.390;2023-04-30T18:18:15;95167.72;;;13.33;70.70
46638;BME280;32365;46.938;7.390;2023-04-30T18:20:42;95172.16;;;13.37;70.23
46638;BME280;32365;46.938;7.390;2023-04-30T18:23:08;95173.75;;;13.38;71.21
46638;BME280;32365;46.938;7.390;2023-04-30T18:25:39;95174.00;;;13.37;70.39
46638;BME280;32365;46.938;7.390;2023-04-30T18:28:06;95177.97;;;13.45;71.20
46638;BME280;32365;46.938;7.390;2023-04-30T18:30:33;95177.84;;;13.29;70.30
46638;BME280;32365;46.938;7.390;2023-04-30T18:33:00;95180.16;;;13.26;70.92
46638;BME280;32365;46.938;7.390;2023-04-30T18:35:26;95183.78;;;13.24;70.73
46638;BME280;32365;46.938;7.390;2023-04-30T18:37:53;95180.94;;;13.26;70.52
46638;BME280;32365;46.938;7.390;2023-04-30T18:40:20;95187.88;;;13.15;71.59
46638;BME280;32365;46.938;7.390;2023-04-30T18:42:48;95180.16;;;13.26;70.77
46638;BME280;32365;46.938;7.390;2023-04-30T18:45:14;95188.50;;;13.28;71.72
46638;BME280;32365;46.938;7.390;2023-04-30T18:47:42;95185.38;;;13.26;72.15
46638;BME280;32365;46.938;7.390;2023-04-30T18:50:09;95184.81;;;13.23;72.05
46638;BME280;32365;46.938;7.390;2023-04-30T18:52:39;95191.34;;;13.26;72.36
46638;BME280;32365;46.938;7.390;2023-04-30T18:55:06;95189.53;;;13.27;72.82
46638;BME280;32365;46.938;7.390;2023-04-30T18:57:35;95190.50;;;13.20;72.53
46638;BME280;32365;46.938;7.390;2023-04-30T19:00:03;95196.47;;;13.16;72.21
46638;BME280;32365;46.938;7.390;2023-04-30T19:02:31;95193.59;;;13.17;72.79
46638;BME280;32365;46.938;7.390;2023-04-30T19:04:57;95194.13;;;13.14;73.87
46638;BME280;32365;46.938;7.390;2023-04-30T19:07:24;95200.34;;;13.13;74.25
46638;BME280;32365;46.938;7.390;2023-04-30T19:09:50;95197.25;;;13.16;74.32
46638;BME280;32365;46.938;7.390;2023-04-30T19:12:17;95200.88;;;13.15;74.17
46638;BME280;32365;46.938;7.390;2023-04-30T19:14:44;95199.41;;;13.30;72.91
46638;BME280;32365;46.938;7.390;2023-04-30T19:17:12;95207.19;;;13.24;72.90
46638;BME280;32365;46.938;7.390;2023-04-30T19:19:39;95209.03;;;13.29;72.99
46638;BME280;32365;46.938;7.390;2023-04-30T19:22:05;95198.84;;;13.22;73.35
46638;BME280;32365;46.938;7.390;2023-04-30T19:24:32;95201.50;;;13.28;73.29
46638;BME280;32365;46.938;7.390;2023-04-30T19:26:58;95205.25;;;13.09;74.63
46638;BME280;32365;46.938;7.390;2023-04-30T19:29:28;95207.47;;;12.96;74.98
46638;BME280;32365;46.938;7.390;2023-04-30T19:31:54;95203.81;;;12.91;76.19
